createdAt,value
2018-03-18T00:00:58.393Z,74.06
2018-03-18T00:02:05.895Z,75.28
2018-03-18T00:03:11.610Z,74.40
2018-03-18T00:04:17.570Z,74.48
2018-03-18T00:05:23.755Z,73.81
2018-03-18T00:06:29.714Z,73.05
2018-03-18T00:07:35.749Z,73.36
2018-03-18T00:08:41.968Z,72.45
2018-03-18T00:09:48.162Z,73.05
2018-03-18T00:10:54.573Z,73.73
2018-03-18T00:12:00.731Z,73.37
2018-03-18T00:13:06.952Z,72.62
2018-03-18T00:14:13.975Z,71.55
2018-03-18T00:15:20.290Z,71.27
2018-03-18T00:16:26.489Z,71.63
2018-03-18T00:17:32.684Z,71.46
2018-03-18T00:18:38.910Z,72.38
2018-03-18T00:19:45.114Z,71.86
2018-03-18T00:20:51.317Z,73.26
2018-03-18T00:21:57.500Z,72.05
2018-03-18T00:23:03.885Z,72.06
2018-03-18T00:24:10.023Z,70.55
2018-03-18T00:25:16.232Z,71.01
2018-03-18T00:26:22.345Z,71.14
2018-03-18T00:27:28.469Z,71.36
2018-03-18T00:28:34.582Z,71.26
2018-03-18T00:29:40.748Z,70.56
2018-03-18T00:30:46.893Z,71.24
2018-03-18T00:31:53.074Z,71.57
2018-03-18T00:32:59.204Z,71.36
2018-03-18T00:34:05.339Z,71.37
2018-03-18T00:35:11.451Z,72.00
2018-03-18T00:36:18.466Z,70.98
2018-03-18T00:37:24.616Z,71.64
2018-03-18T00:38:30.771Z,71.43
2018-03-18T00:39:36.902Z,71.40
2018-03-18T00:40:43.134Z,72.62
2018-03-18T00:41:49.341Z,71.22
2018-03-18T00:42:55.492Z,70.78
2018-03-18T00:44:01.633Z,70.60
2018-03-18T00:45:07.829Z,70.69
2018-03-18T00:46:14.064Z,71.04
2018-03-18T00:47:20.376Z,70.52
2018-03-18T00:48:26.528Z,70.75
2018-03-18T00:49:32.004Z,70.40
2018-03-18T00:50:37.960Z,71.27
2018-03-18T00:51:55.151Z,71.00
2018-03-18T00:53:01.056Z,71.54
2018-03-18T00:54:07.299Z,72.78
2018-03-18T00:55:13.288Z,72.04
2018-03-18T00:56:19.443Z,73.00
2018-03-18T00:57:25.654Z,71.94
2018-03-18T00:58:31.887Z,72.24
2018-03-18T00:59:38.078Z,71.42
2018-03-18T01:00:44.251Z,71.50
2018-03-18T01:01:50.491Z,70.83
2018-03-18T01:02:56.679Z,71.44
2018-03-18T01:04:02.885Z,71.53
2018-03-18T01:05:09.092Z,70.85
2018-03-18T01:06:15.271Z,71.51
2018-03-18T01:07:21.232Z,70.75
2018-03-18T01:08:27.389Z,70.97
2018-03-18T01:09:33.551Z,71.68
2018-03-18T01:10:39.718Z,71.88
2018-03-18T01:11:45.920Z,71.29
2018-03-18T01:12:57.239Z,71.90
2018-03-18T01:14:03.385Z,71.16
2018-03-18T01:15:09.746Z,71.16
2018-03-18T01:16:16.001Z,70.89
2018-03-18T01:17:22.116Z,70.63
2018-03-18T01:18:28.273Z,71.12
2018-03-18T01:19:34.420Z,71.23
2018-03-18T01:20:40.565Z,72.31
2018-03-18T01:21:46.711Z,72.70
2018-03-18T01:22:52.874Z,71.65
2018-03-18T01:23:59.122Z,72.22
2018-03-18T01:25:05.375Z,71.53
2018-03-18T01:26:14.231Z,71.88
2018-03-18T01:27:20.448Z,71.61
2018-03-18T01:28:26.676Z,72.01
2018-03-18T01:29:33.775Z,71.02
2018-03-18T01:30:39.967Z,72.04
2018-03-18T01:31:45.994Z,70.86
2018-03-18T01:32:52.206Z,71.47
2018-03-18T01:33:58.337Z,71.61
2018-03-18T01:35:04.199Z,72.07
2018-03-18T01:36:10.409Z,71.61
2018-03-18T01:37:17.521Z,72.76
2018-03-18T01:38:23.724Z,72.09
2018-03-18T01:39:29.862Z,72.25
2018-03-18T01:40:36.012Z,70.24
2018-03-18T01:41:42.364Z,70.54
2018-03-18T01:42:48.520Z,71.57
2018-03-18T01:43:55.621Z,71.44
2018-03-18T01:45:01.841Z,72.16
2018-03-18T01:46:08.021Z,71.44
2018-03-18T01:47:14.220Z,71.49
2018-03-18T01:48:20.450Z,72.11
2018-03-18T01:49:26.756Z,72.08
2018-03-18T01:50:32.874Z,70.76
2018-03-18T01:51:39.068Z,71.65
2018-03-18T01:52:56.393Z,71.15
2018-03-18T01:54:02.287Z,71.74
2018-03-18T01:55:08.468Z,71.48
2018-03-18T01:56:14.654Z,71.22
2018-03-18T01:57:20.802Z,71.58
2018-03-18T01:58:26.996Z,72.03
2018-03-18T01:59:34.030Z,71.75
2018-03-18T02:00:39.877Z,71.19
2018-03-18T02:01:45.008Z,71.17
2018-03-18T02:02:51.266Z,71.62
2018-03-18T02:03:57.341Z,71.28
2018-03-18T02:05:03.600Z,71.12
2018-03-18T02:06:09.532Z,71.00
2018-03-18T02:07:15.729Z,71.38
2018-03-18T02:08:21.979Z,70.69
2018-03-18T02:09:28.364Z,70.39
2018-03-18T02:10:34.511Z,70.86
2018-03-18T02:11:40.695Z,70.86
2018-03-18T02:12:46.892Z,71.04
2018-03-18T02:13:53.084Z,71.49
2018-03-18T02:14:59.210Z,72.14
2018-03-18T02:16:05.340Z,73.13
2018-03-18T02:17:11.516Z,71.99
2018-03-18T02:18:17.683Z,72.09
2018-03-18T02:19:23.842Z,72.33
2018-03-18T02:20:29.953Z,72.77
2018-03-18T02:21:36.182Z,72.31
2018-03-18T02:22:42.133Z,70.21
2018-03-18T02:23:48.328Z,71.45
2018-03-18T02:24:54.478Z,70.48
2018-03-18T02:26:00.637Z,69.50
2018-03-18T02:27:06.536Z,70.14
2018-03-18T02:28:12.694Z,70.19
2018-03-18T02:29:18.965Z,70.41
2018-03-18T02:30:25.294Z,71.60
2018-03-18T02:31:31.714Z,71.37
2018-03-18T02:32:37.940Z,71.43
2018-03-18T02:33:44.176Z,72.23
2018-03-18T02:34:50.410Z,71.11
2018-03-18T02:35:56.604Z,71.55
2018-03-18T02:37:02.804Z,71.69
2018-03-18T02:38:09.036Z,71.15
2018-03-18T02:39:15.200Z,71.98
2018-03-18T02:40:21.349Z,71.49
2018-03-18T02:41:27.291Z,70.22
2018-03-18T02:42:33.431Z,71.33
2018-03-18T02:43:39.275Z,70.79
2018-03-18T02:44:45.441Z,69.94
2018-03-18T02:45:51.546Z,70.16
2018-03-18T02:46:57.722Z,70.56
2018-03-18T02:48:03.899Z,69.90
2018-03-18T02:49:10.038Z,69.75
2018-03-18T02:50:17.162Z,70.22
2018-03-18T02:51:27.356Z,70.94
2018-03-18T02:52:33.509Z,71.30
2018-03-18T02:53:39.680Z,71.22
2018-03-18T02:54:45.865Z,71.08
2018-03-18T02:55:52.949Z,71.12
2018-03-18T02:56:59.185Z,70.50
2018-03-18T02:58:05.442Z,71.61
2018-03-18T02:59:11.233Z,72.05
2018-03-18T03:00:17.418Z,70.87
2018-03-18T03:01:23.656Z,71.27
2018-03-18T03:02:29.816Z,70.76
2018-03-18T03:03:36.039Z,70.40
2018-03-18T03:04:42.219Z,69.72
2018-03-18T03:05:48.399Z,69.76
2018-03-18T03:06:54.552Z,69.97
2018-03-18T03:08:00.810Z,70.09
2018-03-18T03:09:06.660Z,70.86
2018-03-18T03:10:12.598Z,70.71
2018-03-18T03:11:18.726Z,70.65
2018-03-18T03:12:24.916Z,70.52
2018-03-18T03:13:31.086Z,69.89
2018-03-18T03:14:37.232Z,71.13
2018-03-18T03:15:43.423Z,70.47
2018-03-18T03:16:49.579Z,69.73
2018-03-18T03:17:55.687Z,70.46
2018-03-18T03:19:01.853Z,70.28
2018-03-18T03:20:07.614Z,69.81
2018-03-18T03:21:13.790Z,70.05
2018-03-18T03:22:19.980Z,70.99
2018-03-18T03:23:25.861Z,70.85
2018-03-18T03:24:32.036Z,70.69
2018-03-18T03:25:38.210Z,70.66
2018-03-18T03:26:44.388Z,70.97
2018-03-18T03:27:59.500Z,71.01
2018-03-18T03:29:05.654Z,70.90
2018-03-18T03:30:11.791Z,70.65
2018-03-18T03:31:18.031Z,70.30
2018-03-18T03:32:24.212Z,71.35
2018-03-18T03:33:31.239Z,71.92
2018-03-18T03:34:40.257Z,70.74
2018-03-18T03:35:46.388Z,70.97
2018-03-18T03:36:53.412Z,69.15
2018-03-18T03:37:59.590Z,69.50
2018-03-18T03:39:05.099Z,70.53
2018-03-18T03:40:10.996Z,70.68
2018-03-18T03:41:17.198Z,69.94
2018-03-18T03:42:23.321Z,70.21
2018-03-18T03:43:29.468Z,71.32
2018-03-18T03:44:35.630Z,70.39
2018-03-18T03:45:42.734Z,70.67
2018-03-18T03:46:49.020Z,70.85
2018-03-18T03:47:55.434Z,70.46
2018-03-18T03:49:03.606Z,70.53
2018-03-18T03:50:14.909Z,70.87
2018-03-18T03:51:21.051Z,71.15
2018-03-18T03:52:27.254Z,70.75
2018-03-18T03:53:33.414Z,70.82
2018-03-18T03:54:39.517Z,69.78
2018-03-18T03:55:45.730Z,70.19
2018-03-18T03:56:51.862Z,69.84
2018-03-18T03:57:58.019Z,70.92
2018-03-18T03:59:04.202Z,70.50
2018-03-18T04:00:10.359Z,71.21
2018-03-18T04:01:16.529Z,71.93
2018-03-18T04:02:22.677Z,72.35
2018-03-18T04:03:28.766Z,70.95
2018-03-18T04:04:34.924Z,71.41
2018-03-18T04:05:41.161Z,70.68
2018-03-18T04:06:47.322Z,69.51
2018-03-18T04:07:53.452Z,69.13
2018-03-18T04:08:59.590Z,68.42
2018-03-18T04:10:17.184Z,68.72
2018-03-18T04:11:23.364Z,68.95
2018-03-18T04:12:29.548Z,70.21
2018-03-18T04:13:35.714Z,69.23
2018-03-18T04:14:42.068Z,69.80
2018-03-18T04:15:48.184Z,70.57
2018-03-18T04:16:59.893Z,70.06
2018-03-18T04:18:06.082Z,71.37
2018-03-18T04:19:17.403Z,69.83
2018-03-18T04:20:23.510Z,68.30
2018-03-18T04:21:29.694Z,69.38
2018-03-18T04:22:35.856Z,69.25
2018-03-18T04:23:41.821Z,68.98
2018-03-18T04:24:48.046Z,68.84
2018-03-18T04:25:54.241Z,68.37
2018-03-18T04:27:00.433Z,68.71
2018-03-18T04:28:06.834Z,69.04
2018-03-18T04:29:13.017Z,68.54
2018-03-18T04:30:19.178Z,68.77
2018-03-18T04:31:29.907Z,70.00
2018-03-18T04:32:38.667Z,68.68
2018-03-18T04:33:44.845Z,68.65
2018-03-18T04:34:51.012Z,68.49
2018-03-18T04:35:57.187Z,68.63
2018-03-18T04:37:03.308Z,69.35
2018-03-18T04:38:09.398Z,69.20
2018-03-18T04:39:15.538Z,68.62
2018-03-18T04:40:21.705Z,69.09
2018-03-18T04:41:27.905Z,70.14
2018-03-18T04:42:34.147Z,69.99
2018-03-18T04:43:40.288Z,68.15
2018-03-18T04:44:46.452Z,68.58
2018-03-18T04:45:52.708Z,67.56
2018-03-18T04:46:58.909Z,67.98
2018-03-18T04:48:05.035Z,68.25
2018-03-18T04:49:11.208Z,68.41
2018-03-18T04:50:17.427Z,68.82
2018-03-18T04:51:23.586Z,67.12
2018-03-18T04:52:29.468Z,67.86
2018-03-18T04:53:35.669Z,68.18
2018-03-18T04:54:41.808Z,68.85
2018-03-18T04:55:49.116Z,67.55
2018-03-18T04:56:55.226Z,68.27
2018-03-18T04:58:01.347Z,68.13
2018-03-18T04:59:09.358Z,67.42
2018-03-18T05:00:15.528Z,66.97
2018-03-18T05:01:21.773Z,67.60
2018-03-18T05:02:27.959Z,67.49
2018-03-18T05:03:34.120Z,67.12
2018-03-18T05:04:40.265Z,66.26
2018-03-18T05:05:46.266Z,67.58
2018-03-18T05:06:52.504Z,66.77
2018-03-18T05:07:58.956Z,67.08
2018-03-18T05:09:04.443Z,67.79
2018-03-18T05:10:10.656Z,67.91
2018-03-18T05:11:16.660Z,68.37
2018-03-18T05:12:22.827Z,68.02
2018-03-18T05:13:29.000Z,67.86
2018-03-18T05:14:35.111Z,67.81
2018-03-18T05:15:41.240Z,67.02
2018-03-18T05:16:47.423Z,67.05
2018-03-18T05:17:53.588Z,68.41
2018-03-18T05:18:59.761Z,68.35
2018-03-18T05:20:05.933Z,67.56
2018-03-18T05:21:12.082Z,67.57
2018-03-18T05:22:18.535Z,66.91
2018-03-18T05:23:24.687Z,67.62
2018-03-18T05:24:30.817Z,66.96
2018-03-18T05:25:36.996Z,67.23
2018-03-18T05:26:43.137Z,65.89
2018-03-18T05:27:50.260Z,67.41
2018-03-18T05:28:56.365Z,67.77
2018-03-18T05:30:02.537Z,67.77
2018-03-18T05:31:08.132Z,68.27
2018-03-18T05:32:14.227Z,67.57
2018-03-18T05:33:20.511Z,67.25
2018-03-18T05:34:26.717Z,68.28
2018-03-18T05:35:32.914Z,68.92
2018-03-18T05:36:39.097Z,69.07
2018-03-18T05:37:45.095Z,67.67
2018-03-18T05:38:51.118Z,67.86
2018-03-18T05:39:57.271Z,67.24
2018-03-18T05:41:03.422Z,66.20
2018-03-18T05:42:09.602Z,65.70
2018-03-18T05:43:15.742Z,67.19
2018-03-18T05:44:21.891Z,66.85
2018-03-18T05:45:27.996Z,66.83
2018-03-18T05:46:34.178Z,66.33
2018-03-18T05:47:40.297Z,66.63
2018-03-18T05:48:46.413Z,66.84
2018-03-18T05:49:52.597Z,66.90
2018-03-18T05:50:58.756Z,66.94
2018-03-18T05:52:04.896Z,67.79
2018-03-18T05:53:11.072Z,66.97
2018-03-18T05:54:17.489Z,66.49
2018-03-18T05:55:23.629Z,67.26
2018-03-18T05:56:29.577Z,66.61
2018-03-18T05:57:35.709Z,66.96
2018-03-18T05:58:41.878Z,66.05
2018-03-18T05:59:48.072Z,65.83
2018-03-18T06:00:54.226Z,66.12
2018-03-18T06:02:00.420Z,67.68
2018-03-18T06:03:06.613Z,65.62
2018-03-18T06:04:12.728Z,66.21
2018-03-18T06:05:18.887Z,66.68
2018-03-18T06:06:25.078Z,65.75
2018-03-18T06:07:31.242Z,65.66
2018-03-18T06:08:37.366Z,66.75
2018-03-18T06:09:43.521Z,65.91
2018-03-18T06:10:49.648Z,66.33
2018-03-18T06:11:55.776Z,67.00
2018-03-18T06:13:01.946Z,65.06
2018-03-18T06:14:08.146Z,64.94
2018-03-18T06:15:14.296Z,64.89
2018-03-18T06:16:20.429Z,66.51
2018-03-18T06:17:26.638Z,65.82
2018-03-18T06:18:32.791Z,64.77
2018-03-18T06:19:38.945Z,65.30
2018-03-18T06:20:45.128Z,65.07
2018-03-18T06:21:51.313Z,65.65
2018-03-18T06:22:57.476Z,65.35
2018-03-18T06:24:03.675Z,64.78
2018-03-18T06:25:10.550Z,65.40
2018-03-18T06:26:16.715Z,66.04
2018-03-18T06:27:22.896Z,65.89
2018-03-18T06:28:29.089Z,65.70
2018-03-18T06:29:35.239Z,65.40
2018-03-18T06:30:41.412Z,66.23
2018-03-18T06:31:47.512Z,64.84
2018-03-18T06:32:53.790Z,65.04
2018-03-18T06:34:00.282Z,64.50
2018-03-18T06:35:08.358Z,65.02
2018-03-18T06:36:16.787Z,64.66
2018-03-18T06:37:23.902Z,64.22
2018-03-18T06:38:32.646Z,63.59
2018-03-18T06:39:40.608Z,65.21
2018-03-18T06:40:47.984Z,65.06
2018-03-18T06:41:55.612Z,65.06
2018-03-18T06:43:03.099Z,64.81
2018-03-18T06:44:11.134Z,64.90
2018-03-18T06:45:19.183Z,63.37
2018-03-18T06:46:26.486Z,63.45
2018-03-18T06:47:32.709Z,64.16
2018-03-18T06:48:39.125Z,64.67
2018-03-18T06:49:45.457Z,64.10
2018-03-18T06:50:51.430Z,63.06
2018-03-18T06:51:57.941Z,63.12
2018-03-18T06:53:04.284Z,63.11
2018-03-18T06:54:11.907Z,63.74
2018-03-18T06:55:20.338Z,63.36
2018-03-18T06:56:27.035Z,63.09
2018-03-18T06:57:34.037Z,63.12
2018-03-18T06:58:46.709Z,63.19
2018-03-18T06:59:54.167Z,64.10
2018-03-18T07:01:02.066Z,64.68
2018-03-18T07:02:09.434Z,64.05
2018-03-18T07:03:16.548Z,63.45
2018-03-18T07:04:24.080Z,64.30
2018-03-18T07:05:30.925Z,62.23
2018-03-18T07:06:38.784Z,62.87
2018-03-18T07:07:45.329Z,63.01
2018-03-18T07:08:51.602Z,63.21
2018-03-18T07:09:57.857Z,63.07
2018-03-18T07:11:03.728Z,63.34
2018-03-18T07:12:09.915Z,63.37
2018-03-18T07:13:16.115Z,63.13
2018-03-18T07:14:27.184Z,62.36
2018-03-18T07:15:33.285Z,63.54
2018-03-18T07:16:39.775Z,63.32
2018-03-18T07:17:46.922Z,63.10
2018-03-18T07:18:53.298Z,62.98
2018-03-18T07:19:59.970Z,62.47
2018-03-18T07:21:06.574Z,61.87
2018-03-18T07:22:13.047Z,62.75
2018-03-18T07:23:20.149Z,63.08
2018-03-18T07:24:26.429Z,63.20
2018-03-18T07:25:32.688Z,63.04
2018-03-18T07:26:39.092Z,63.07
2018-03-18T07:27:45.556Z,62.16
2018-03-18T07:28:52.813Z,62.34
2018-03-18T07:29:59.493Z,61.17
2018-03-18T07:31:05.866Z,61.44
2018-03-18T07:32:12.189Z,62.18
2018-03-18T07:33:19.028Z,62.88
2018-03-18T07:34:25.341Z,62.31
2018-03-18T07:35:31.666Z,62.16
2018-03-18T07:36:38.336Z,62.95
2018-03-18T07:37:44.550Z,62.12
2018-03-18T07:38:52.677Z,61.72
2018-03-18T07:39:59.548Z,62.16
2018-03-18T07:41:06.129Z,62.68
2018-03-18T07:42:12.529Z,63.64
2018-03-18T07:43:18.958Z,62.94
2018-03-18T07:44:26.058Z,62.69
2018-03-18T07:45:32.768Z,62.70
2018-03-18T07:46:39.367Z,62.68
2018-03-18T07:47:45.510Z,62.11
2018-03-18T07:48:52.206Z,61.82
2018-03-18T07:49:58.754Z,61.13
2018-03-18T07:51:05.285Z,62.27
2018-03-18T07:52:12.116Z,62.26
2018-03-18T07:53:19.583Z,61.08
2018-03-18T07:54:26.774Z,62.89
2018-03-18T07:55:33.307Z,62.26
2018-03-18T07:56:40.030Z,62.74
2018-03-18T07:57:46.808Z,62.14
2018-03-18T07:58:53.344Z,61.92
2018-03-18T07:59:59.818Z,63.09
2018-03-18T08:01:06.035Z,62.66
2018-03-18T08:02:15.635Z,61.96
2018-03-18T08:03:25.202Z,61.04
2018-03-18T08:04:31.424Z,60.82
2018-03-18T08:05:37.557Z,61.36
2018-03-18T08:06:43.743Z,61.97
2018-03-18T08:07:49.987Z,62.53
2018-03-18T08:08:56.202Z,60.78
2018-03-18T08:10:02.377Z,60.61
2018-03-18T08:11:08.629Z,59.71
2018-03-18T08:12:14.795Z,59.73
2018-03-18T08:13:21.054Z,60.96
2018-03-18T08:14:27.222Z,61.40
2018-03-18T08:15:33.352Z,60.82
2018-03-18T08:16:39.472Z,60.86
2018-03-18T08:17:45.648Z,61.24
2018-03-18T08:18:51.884Z,61.31
2018-03-18T08:19:58.087Z,60.87
2018-03-18T08:21:10.336Z,59.23
2018-03-18T08:22:16.547Z,59.49
2018-03-18T08:23:22.767Z,58.90
2018-03-18T08:24:28.957Z,59.41
2018-03-18T08:25:35.161Z,60.11
2018-03-18T08:26:41.342Z,60.24
2018-03-18T08:27:47.504Z,61.91
2018-03-18T08:28:58.698Z,62.38
2018-03-18T08:30:04.324Z,60.56
2018-03-18T08:31:10.563Z,60.14
2018-03-18T08:32:20.069Z,60.90
2018-03-18T08:33:26.958Z,58.08
2018-03-18T08:34:34.542Z,58.95
2018-03-18T08:35:45.664Z,60.37
2018-03-18T08:36:53.084Z,59.02
2018-03-18T08:38:00.235Z,59.46
2018-03-18T08:39:05.734Z,60.79
2018-03-18T08:40:11.944Z,60.58
2018-03-18T08:41:18.155Z,60.73
2018-03-18T08:42:29.355Z,60.68
2018-03-18T08:43:35.683Z,58.55
2018-03-18T08:44:43.282Z,57.92
2018-03-18T08:45:50.133Z,58.92
2018-03-18T08:46:56.589Z,59.24
2018-03-18T08:48:02.817Z,58.92
2018-03-18T08:49:09.014Z,58.33
2018-03-18T08:50:15.264Z,57.61
2018-03-18T08:51:21.733Z,59.39
2018-03-18T08:52:27.907Z,59.70
2018-03-18T08:53:34.076Z,59.44
2018-03-18T08:54:40.269Z,58.01
2018-03-18T08:55:46.797Z,59.28
2018-03-18T08:56:59.869Z,57.83
2018-03-18T08:58:06.107Z,59.85
2018-03-18T08:59:12.105Z,58.73
2018-03-18T09:00:18.117Z,56.90
2018-03-18T09:01:23.960Z,58.20
2018-03-18T09:02:30.126Z,58.82
2018-03-18T09:03:36.390Z,59.12
2018-03-18T09:04:44.237Z,59.30
2018-03-18T09:05:54.102Z,57.50
2018-03-18T09:07:00.306Z,59.05
2018-03-18T09:08:06.522Z,60.27
2018-03-18T09:09:12.770Z,58.27
2018-03-18T09:10:19.010Z,57.33
2018-03-18T09:11:25.200Z,58.02
2018-03-18T09:12:31.411Z,59.34
2018-03-18T09:13:37.718Z,57.25
2018-03-18T09:14:43.901Z,57.60
2018-03-18T09:15:50.084Z,57.70
2018-03-18T09:16:56.309Z,58.85
2018-03-18T09:18:02.784Z,58.01
2018-03-18T09:19:09.145Z,57.50
2018-03-18T09:20:15.264Z,56.78
2018-03-18T09:21:23.537Z,55.81
2018-03-18T09:22:29.798Z,57.69
2018-03-18T09:23:36.107Z,57.61
2018-03-18T09:24:42.830Z,57.62
2018-03-18T09:25:52.976Z,56.48
2018-03-18T09:26:59.956Z,57.07
2018-03-18T09:28:05.975Z,57.03
2018-03-18T09:29:12.224Z,57.37
2018-03-18T09:30:18.638Z,57.97
2018-03-18T09:31:25.054Z,58.01
2018-03-18T09:32:31.229Z,57.62
2018-03-18T09:33:37.477Z,58.58
2018-03-18T09:34:43.725Z,56.03
2018-03-18T09:35:49.610Z,56.27
2018-03-18T09:36:55.567Z,58.11
2018-03-18T09:38:01.794Z,58.56
2018-03-18T09:39:08.142Z,57.45
2018-03-18T09:40:13.961Z,57.24
2018-03-18T09:41:20.217Z,55.97
2018-03-18T09:42:26.438Z,56.06
2018-03-18T09:43:32.699Z,55.16
2018-03-18T09:44:40.275Z,56.09
2018-03-18T09:45:46.503Z,56.10
2018-03-18T09:46:52.818Z,56.99
2018-03-18T09:47:59.076Z,55.88
2018-03-18T09:49:05.363Z,55.67
2018-03-18T09:50:11.788Z,55.54
2018-03-18T09:51:18.217Z,54.45
2018-03-18T09:52:24.424Z,55.54
2018-03-18T09:53:30.657Z,55.54
2018-03-18T09:54:36.856Z,55.71
2018-03-18T09:55:43.105Z,57.26
2018-03-18T09:56:49.411Z,56.79
2018-03-18T09:57:55.688Z,55.96
2018-03-18T09:59:01.892Z,55.41
2018-03-18T10:00:08.072Z,54.94
2018-03-18T10:01:14.327Z,53.58
2018-03-18T10:02:20.836Z,54.38
2018-03-18T10:03:27.016Z,54.57
2018-03-18T10:04:33.047Z,55.37
2018-03-18T10:05:39.307Z,55.64
2018-03-18T10:06:45.634Z,55.83
2018-03-18T10:07:52.021Z,55.12
2018-03-18T10:08:58.250Z,55.58
2018-03-18T10:10:03.855Z,55.29
2018-03-18T10:11:10.069Z,53.41
2018-03-18T10:12:16.301Z,53.34
2018-03-18T10:13:22.612Z,54.48
2018-03-18T10:14:28.899Z,53.96
2018-03-18T10:15:35.088Z,54.40
2018-03-18T10:16:41.318Z,55.74
2018-03-18T10:17:47.566Z,54.54
2018-03-18T10:18:53.808Z,54.47
2018-03-18T10:20:00.051Z,54.40
2018-03-18T10:21:06.324Z,54.40
2018-03-18T10:22:12.557Z,53.72
2018-03-18T10:23:18.842Z,55.49
2018-03-18T10:24:25.088Z,54.39
2018-03-18T10:25:30.910Z,55.32
2018-03-18T10:26:36.977Z,56.15
2018-03-18T10:27:43.293Z,55.28
2018-03-18T10:28:49.994Z,56.11
2018-03-18T10:29:55.884Z,55.58
2018-03-18T10:31:01.923Z,54.52
2018-03-18T10:32:08.171Z,54.86
2018-03-18T10:33:14.433Z,54.55
2018-03-18T10:34:20.556Z,51.99
2018-03-18T10:35:26.836Z,53.11
2018-03-18T10:36:33.064Z,52.64
2018-03-18T10:37:39.312Z,52.97
2018-03-18T10:38:45.580Z,55.09
2018-03-18T10:39:51.857Z,55.03
2018-03-18T10:40:58.070Z,54.74
2018-03-18T10:42:04.659Z,52.51
2018-03-18T10:43:11.151Z,52.82
2018-03-18T10:44:17.482Z,53.49
2018-03-18T10:45:23.745Z,53.63
2018-03-18T10:46:29.936Z,54.39
2018-03-18T10:47:36.174Z,53.53
2018-03-18T10:48:43.179Z,55.01
2018-03-18T10:49:49.443Z,53.01
2018-03-18T10:50:55.784Z,54.12
2018-03-18T10:52:02.008Z,54.82
2018-03-18T10:53:08.195Z,54.43
2018-03-18T10:54:14.466Z,54.41
2018-03-18T10:55:20.723Z,52.83
2018-03-18T10:56:26.969Z,52.22
2018-03-18T10:57:33.198Z,53.24
2018-03-18T10:58:40.473Z,52.55
2018-03-18T10:59:46.743Z,52.99
2018-03-18T11:00:53.659Z,53.36
2018-03-18T11:02:05.635Z,51.67
2018-03-18T11:03:11.695Z,53.24
2018-03-18T11:04:18.807Z,53.10
2018-03-18T11:05:25.083Z,52.54
2018-03-18T11:06:31.312Z,52.35
2018-03-18T11:07:37.568Z,53.94
2018-03-18T11:08:43.872Z,53.62
2018-03-18T11:09:53.049Z,53.42
2018-03-18T11:11:02.929Z,52.48
2018-03-18T11:12:11.873Z,50.53
2018-03-18T11:13:17.902Z,50.92
2018-03-18T11:14:26.105Z,51.20
2018-03-18T11:15:32.375Z,51.28
2018-03-18T11:16:38.619Z,52.00
2018-03-18T11:17:44.858Z,50.83
2018-03-18T11:18:51.050Z,51.68
2018-03-18T11:19:57.246Z,52.41
2018-03-18T11:21:03.481Z,53.34
2018-03-18T11:22:09.918Z,51.92
2018-03-18T11:23:15.991Z,52.16
2018-03-18T11:24:22.283Z,52.16
2018-03-18T11:25:28.491Z,51.55
2018-03-18T11:26:34.714Z,52.14
2018-03-18T11:27:40.636Z,52.99
2018-03-18T11:28:46.823Z,53.94
2018-03-18T11:29:53.067Z,51.61
2018-03-18T11:30:59.260Z,51.30
2018-03-18T11:32:05.550Z,51.84
2018-03-18T11:33:11.756Z,51.04
2018-03-18T11:34:23.825Z,51.89
2018-03-18T11:35:30.087Z,51.08
2018-03-18T11:36:36.361Z,50.83
2018-03-18T11:37:42.583Z,50.40
2018-03-18T11:38:48.483Z,49.82
2018-03-18T11:39:54.720Z,51.77
2018-03-18T11:41:00.954Z,51.01
2018-03-18T11:42:07.114Z,52.75
2018-03-18T11:43:13.269Z,51.99
2018-03-18T11:44:19.632Z,51.52
2018-03-18T11:45:25.872Z,51.91
2018-03-18T11:46:31.789Z,50.05
2018-03-18T11:47:37.973Z,50.83
2018-03-18T11:48:44.223Z,51.31
2018-03-18T11:49:51.421Z,51.08
2018-03-18T11:50:57.293Z,51.74
2018-03-18T11:52:03.861Z,51.37
2018-03-18T11:53:10.088Z,51.84
2018-03-18T11:54:16.349Z,50.62
2018-03-18T11:55:22.817Z,52.04
2018-03-18T11:56:29.062Z,52.26
2018-03-18T11:57:35.308Z,53.02
2018-03-18T11:58:41.223Z,51.37
2018-03-18T11:59:47.708Z,50.90
2018-03-18T12:00:54.858Z,50.90
2018-03-18T12:02:01.111Z,49.62
2018-03-18T12:03:07.392Z,49.74
2018-03-18T12:04:13.275Z,49.78
2018-03-18T12:05:19.197Z,48.89
2018-03-18T12:06:25.517Z,49.88
2018-03-18T12:07:31.943Z,50.48
2018-03-18T12:08:48.875Z,48.76
2018-03-18T12:09:54.879Z,49.59
2018-03-18T12:11:03.165Z,49.62
2018-03-18T12:12:10.072Z,52.32
2018-03-18T12:13:16.945Z,50.65
2018-03-18T12:14:25.614Z,50.00
2018-03-18T12:15:31.786Z,50.34
2018-03-18T12:16:38.089Z,48.98
2018-03-18T12:17:44.056Z,49.64
2018-03-18T12:18:50.363Z,50.70
2018-03-18T12:19:56.598Z,50.95
2018-03-18T12:21:02.852Z,52.31
2018-03-18T12:22:09.138Z,51.42
2018-03-18T12:23:15.216Z,50.39
2018-03-18T12:24:21.693Z,49.50
2018-03-18T12:25:27.955Z,49.68
2018-03-18T12:26:33.900Z,48.98
2018-03-18T12:27:40.123Z,49.88
2018-03-18T12:28:46.484Z,50.20
2018-03-18T12:29:52.798Z,49.80
2018-03-18T12:30:59.271Z,48.69
2018-03-18T12:32:05.548Z,49.44
2018-03-18T12:33:11.513Z,50.03
2018-03-18T12:34:17.126Z,50.13
2018-03-18T12:35:22.728Z,50.46
2018-03-18T12:36:29.053Z,50.64
2018-03-18T12:37:35.240Z,49.52
2018-03-18T12:38:41.611Z,50.29
2018-03-18T12:39:59.805Z,48.86
2018-03-18T12:41:05.142Z,48.55
2018-03-18T12:42:10.856Z,51.45
2018-03-18T12:43:30.452Z,50.16
2018-03-18T12:44:36.755Z,50.44
2018-03-18T12:45:43.580Z,49.84
2018-03-18T12:46:50.291Z,48.05
2018-03-18T12:47:56.622Z,49.50
2018-03-18T12:49:03.636Z,49.11
2018-03-18T12:50:09.860Z,49.38
2018-03-18T12:51:16.137Z,51.24
2018-03-18T12:52:25.641Z,51.57
2018-03-18T12:53:31.337Z,51.10
2018-03-18T12:54:37.913Z,49.94
2018-03-18T12:55:44.490Z,51.92
2018-03-18T12:56:50.786Z,50.02
2018-03-18T12:57:57.013Z,48.24
2018-03-18T12:59:04.220Z,48.41
2018-03-18T13:00:10.622Z,49.79
2018-03-18T13:01:16.845Z,47.71
2018-03-18T13:02:23.208Z,49.71
2018-03-18T13:03:30.403Z,48.81
2018-03-18T13:04:36.379Z,48.45
2018-03-18T13:05:42.666Z,49.10
2018-03-18T13:06:50.948Z,48.61
2018-03-18T13:07:57.268Z,48.89
2018-03-18T13:09:03.372Z,48.14
2018-03-18T13:10:09.360Z,49.31
2018-03-18T13:11:15.702Z,48.71
2018-03-18T13:12:22.725Z,47.22
2018-03-18T13:13:29.010Z,49.21
2018-03-18T13:14:35.361Z,47.81
2018-03-18T13:15:42.433Z,48.00
2018-03-18T13:16:49.945Z,50.19
2018-03-18T13:17:56.423Z,47.10
2018-03-18T13:19:02.706Z,48.02
2018-03-18T13:20:08.921Z,47.16
2018-03-18T13:21:15.219Z,46.88
2018-03-18T13:22:21.542Z,47.32
2018-03-18T13:23:27.824Z,48.06
2018-03-18T13:24:34.037Z,48.24
2018-03-18T13:25:40.325Z,48.90
2018-03-18T13:26:46.642Z,49.60
2018-03-18T13:27:52.896Z,49.17
2018-03-18T13:28:59.138Z,49.90
2018-03-18T13:30:04.755Z,51.52
2018-03-18T13:31:11.046Z,49.43
2018-03-18T13:32:17.902Z,48.59
2018-03-18T13:33:24.207Z,48.54
2018-03-18T13:34:31.143Z,50.00
2018-03-18T13:35:37.290Z,49.63
2018-03-18T13:36:43.668Z,49.12
2018-03-18T13:37:49.919Z,51.41
2018-03-18T13:38:56.160Z,50.17
2018-03-18T13:40:02.448Z,49.63
2018-03-18T13:41:09.801Z,47.38
2018-03-18T13:42:15.390Z,49.21
2018-03-18T13:43:20.974Z,49.87
2018-03-18T13:44:27.001Z,49.48
2018-03-18T13:45:33.499Z,48.62
2018-03-18T13:46:39.723Z,49.07
2018-03-18T13:47:45.968Z,49.36
2018-03-18T13:48:52.134Z,47.57
2018-03-18T13:49:58.362Z,49.29
2018-03-18T13:51:04.274Z,50.41
2018-03-18T13:52:10.561Z,48.47
2018-03-18T13:53:17.546Z,49.52
2018-03-18T13:54:23.842Z,50.55
2018-03-18T13:55:29.764Z,50.10
2018-03-18T13:56:35.771Z,50.20
2018-03-18T13:57:41.906Z,48.68
2018-03-18T13:58:52.412Z,48.40
2018-03-18T13:59:58.914Z,49.25
2018-03-18T14:01:04.508Z,49.13
2018-03-18T14:02:11.604Z,47.58
2018-03-18T14:03:17.494Z,48.39
2018-03-18T14:04:23.796Z,49.47
2018-03-18T14:05:30.105Z,48.90
2018-03-18T14:06:36.227Z,48.46
2018-03-18T14:07:43.482Z,48.32
2018-03-18T14:08:49.895Z,48.56
2018-03-18T14:09:56.124Z,48.14
2018-03-18T14:11:02.417Z,49.55
2018-03-18T14:12:08.801Z,48.29
2018-03-18T14:13:21.508Z,48.14
2018-03-18T14:14:31.401Z,47.46
2018-03-18T14:15:37.627Z,48.98
2018-03-18T14:16:43.908Z,48.08
2018-03-18T14:17:51.184Z,46.46